sensor_id;sensor_type;location;lat;lon;timestamp;P1;durP1;ratioP1;P2;durP2;ratioP2
59062;SDS011;44851;45.648;9.004;2023-05-10T00:00:50;23.90;;;21.50;;
59062;SDS011;44851;45.648;9.004;2023-05-10T00:03:16;22.50;;;20.30;;
59062;SDS011;44851;45.648;9.004;2023-05-10T00:05:41;23.53;;;21.13;;
59062;SDS011;44851;45.648;9.004;2023-05-10T00:08:07;24.17;;;21.60;;
59062;SDS011;44851;45.648;9.004;2023-05-10T00:10:32;23.57;;;20.97;;
59062;SDS011;44851;45.648;9.004;2023-05-10T00:12:58;23.47;;;21.07;;
59062;SDS011;44851;45.648;9.004;2023-05-10T00:15:23;23.40;;;20.93;;
59062;SDS011;44851;45.648;9.004;2023-05-10T00:17:48;21.87;;;19.67;;
59062;SDS011;44851;45.648;9.004;2023-05-10T00:20:14;22.40;;;19.87;;
59062;SDS011;44851;45.648;9.004;2023-05-10T00:22:39;22.67;;;20.37;;
59062;SDS011;44851;45.648;9.004;2023-05-10T00:25:05;21.73;;;19.43;;
59062;SDS011;44851;45.648;9.004;2023-05-10T00:27:31;21.50;;;19.23;;
59062;SDS011;44851;45.648;9.004;2023-05-10T00:29:56;21.03;;;18.93;;
59062;SDS011;44851;45.648;9.004;2023-05-10T00:32:21;21.30;;;19.20;;
59062;SDS011;44851;45.648;9.004;2023-05-10T00:34:47;20.07;;;18.07;;
59062;SDS011;44851;45.648;9.004;2023-05-10T00:37:12;21.13;;;19.03;;
59062;SDS011;44851;45.648;9.004;2023-05-10T00:39:37;20.73;;;18.53;;
59062;SDS011;44851;45.648;9.004;2023-05-10T00:42:03;20.77;;;18.67;;
59062;SDS011;44851;45.648;9.004;2023-05-10T00:44:29;21.00;;;18.90;;
59062;SDS011;44851;45.648;9.004;2023-05-10T00:46:55;20.03;;;18.13;;
59062;SDS011;44851;45.648;9.004;2023-05-10T00:49:22;21.43;;;19.23;;
59062;SDS011;44851;45.648;9.004;2023-05-10T00:51:47;21.37;;;19.27;;
59062;SDS011;44851;45.648;9.004;2023-05-10T00:54:14;20.03;;;17.80;;
59062;SDS011;44851;45.648;9.004;2023-05-10T00:56:40;19.40;;;17.40;;
59062;SDS011;44851;45.648;9.004;2023-05-10T00:59:06;18.77;;;16.93;;
59062;SDS011;44851;45.648;9.004;2023-05-10T01:01:34;16.60;;;14.90;;
59062;SDS011;44851;45.648;9.004;2023-05-10T01:04:00;16.23;;;14.70;;
59062;SDS011;44851;45.648;9.004;2023-05-10T01:06:28;14.87;;;12.63;;
59062;SDS011;44851;45.648;9.004;2023-05-10T01:08:53;14.47;;;13.07;;
59062;SDS011;44851;45.648;9.004;2023-05-10T01:11:18;16.33;;;14.63;;
59062;SDS011;44851;45.648;9.004;2023-05-10T01:13:44;16.20;;;14.10;;
59062;SDS011;44851;45.648;9.004;2023-05-10T01:16:16;15.63;;;14.03;;
59062;SDS011;44851;45.648;9.004;2023-05-10T01:18:41;15.57;;;13.97;;
59062;SDS011;44851;45.648;9.004;2023-05-10T01:21:19;15.53;;;14.03;;
59062;SDS011;44851;45.648;9.004;2023-05-10T01:32:14;14.30;;;12.57;;
59062;SDS011;44851;45.648;9.004;2023-05-10T01:34:47;12.37;;;11.17;;
59062;SDS011;44851;45.648;9.004;2023-05-10T01:37:21;11.47;;;10.37;;
59062;SDS011;44851;45.648;9.004;2023-05-10T01:40:08;11.77;;;10.63;;
59062;SDS011;44851;45.648;9.004;2023-05-10T01:42:50;10.27;;;9.00;;
59062;SDS011;44851;45.648;9.004;2023-05-10T01:48:10;9.10;;;7.73;;
59062;SDS011;44851;45.648;9.004;2023-05-10T01:50:39;8.87;;;8.07;;
59062;SDS011;44851;45.648;9.004;2023-05-10T01:53:08;8.60;;;7.70;;
59062;SDS011;44851;45.648;9.004;2023-05-10T01:55:47;7.73;;;7.03;;
59062;SDS011;44851;45.648;9.004;2023-05-10T01:58:19;8.40;;;7.60;;
59062;SDS011;44851;45.648;9.004;2023-05-10T02:00:47;7.97;;;7.17;;
59062;SDS011;44851;45.648;9.004;2023-05-10T02:03:14;8.30;;;7.50;;
59062;SDS011;44851;45.648;9.004;2023-05-10T02:05:42;7.33;;;6.63;;
59062;SDS011;44851;45.648;9.004;2023-05-10T02:08:10;7.53;;;6.87;;
59062;SDS011;44851;45.648;9.004;2023-05-10T02:10:36;9.00;;;7.47;;
59062;SDS011;44851;45.648;9.004;2023-05-10T02:13:04;7.80;;;7.03;;
59062;SDS011;44851;45.648;9.004;2023-05-10T02:15:32;7.17;;;6.47;;
59062;SDS011;44851;45.648;9.004;2023-05-10T02:17:59;7.30;;;6.70;;
59062;SDS011;44851;45.648;9.004;2023-05-10T02:20:27;7.00;;;6.40;;
59062;SDS011;44851;45.648;9.004;2023-05-10T02:22:54;7.10;;;6.40;;
59062;SDS011;44851;45.648;9.004;2023-05-10T02:25:22;7.30;;;6.60;;
59062;SDS011;44851;45.648;9.004;2023-05-10T02:27:49;6.57;;;5.87;;
59062;SDS011;44851;45.648;9.004;2023-05-10T02:30:18;7.17;;;6.47;;
59062;SDS011;44851;45.648;9.004;2023-05-10T02:32:44;6.33;;;5.83;;
59062;SDS011;44851;45.648;9.004;2023-05-10T02:35:10;7.60;;;5.73;;
59062;SDS011;44851;45.648;9.004;2023-05-10T02:37:36;7.13;;;6.43;;
59062;SDS011;44851;45.648;9.004;2023-05-10T02:40:03;6.50;;;5.90;;
59062;SDS011;44851;45.648;9.004;2023-05-10T02:42:31;6.90;;;6.30;;
59062;SDS011;44851;45.648;9.004;2023-05-10T02:45:00;7.73;;;6.33;;
59062;SDS011;44851;45.648;9.004;2023-05-10T02:47:30;6.60;;;6.10;;
59062;SDS011;44851;45.648;9.004;2023-05-10T02:49:56;6.33;;;5.73;;
59062;SDS011;44851;45.648;9.004;2023-05-10T02:52:25;6.73;;;6.13;;
59062;SDS011;44851;45.648;9.004;2023-05-10T02:54:54;6.80;;;6.10;;
59062;SDS011;44851;45.648;9.004;2023-05-10T02:57:25;7.80;;;7.10;;
59062;SDS011;44851;45.648;9.004;2023-05-10T02:59:53;7.00;;;6.30;;
59062;SDS011;44851;45.648;9.004;2023-05-10T03:02:20;8.53;;;7.10;;
59062;SDS011;44851;45.648;9.004;2023-05-10T03:04:45;7.83;;;7.13;;
59062;SDS011;44851;45.648;9.004;2023-05-10T03:07:11;7.27;;;6.67;;
59062;SDS011;44851;45.648;9.004;2023-05-10T03:09:37;8.03;;;7.23;;
59062;SDS011;44851;45.648;9.004;2023-05-10T03:20:26;10.67;;;7.40;;
59062;SDS011;44851;45.648;9.004;2023-05-10T03:23:00;8.50;;;7.60;;
59062;SDS011;44851;45.648;9.004;2023-05-10T03:25:32;8.50;;;7.70;;
59062;SDS011;44851;45.648;9.004;2023-05-10T03:27:59;8.67;;;7.87;;
59062;SDS011;44851;45.648;9.004;2023-05-10T03:30:26;8.33;;;7.53;;
59062;SDS011;44851;45.648;9.004;2023-05-10T03:32:53;9.23;;;8.33;;
59062;SDS011;44851;45.648;9.004;2023-05-10T03:35:19;8.17;;;7.47;;
59062;SDS011;44851;45.648;9.004;2023-05-10T03:37:44;8.17;;;7.30;;
59062;SDS011;44851;45.648;9.004;2023-05-10T03:40:10;7.87;;;7.07;;
59062;SDS011;44851;45.648;9.004;2023-05-10T03:42:36;7.87;;;7.07;;
59062;SDS011;44851;45.648;9.004;2023-05-10T03:45:01;7.40;;;6.70;;
59062;SDS011;44851;45.648;9.004;2023-05-10T03:47:27;6.97;;;6.30;;
59062;SDS011;44851;45.648;9.004;2023-05-10T03:49:52;6.50;;;5.90;;
59062;SDS011;44851;45.648;9.004;2023-05-10T03:52:17;5.63;;;5.13;;
59062;SDS011;44851;45.648;9.004;2023-05-10T03:54:43;6.43;;;5.83;;
59062;SDS011;44851;45.648;9.004;2023-05-10T03:57:08;5.97;;;5.47;;
59062;SDS011;44851;45.648;9.004;2023-05-10T03:59:34;5.60;;;5.10;;
59062;SDS011;44851;45.648;9.004;2023-05-10T04:02:00;6.53;;;5.93;;
59062;SDS011;44851;45.648;9.004;2023-05-10T04:04:25;6.57;;;5.87;;
59062;SDS011;44851;45.648;9.004;2023-05-10T04:06:51;6.97;;;6.37;;
59062;SDS011;44851;45.648;9.004;2023-05-10T04:09:16;7.10;;;6.03;;
59062;SDS011;44851;45.648;9.004;2023-05-10T04:11:42;6.13;;;5.27;;
59062;SDS011;44851;45.648;9.004;2023-05-10T04:14:07;6.67;;;5.97;;
59062;SDS011;44851;45.648;9.004;2023-05-10T04:16:32;7.17;;;6.47;;
59062;SDS011;44851;45.648;9.004;2023-05-10T04:18:58;5.83;;;5.23;;
59062;SDS011;44851;45.648;9.004;2023-05-10T04:21:24;7.30;;;5.40;;
59062;SDS011;44851;45.648;9.004;2023-05-10T04:23:50;6.30;;;5.70;;
59062;SDS011;44851;45.648;9.004;2023-05-10T04:26:15;6.47;;;5.87;;
59062;SDS011;44851;45.648;9.004;2023-05-10T04:28:41;7.17;;;6.20;;
59062;SDS011;44851;45.648;9.004;2023-05-10T04:31:07;5.73;;;5.20;;
59062;SDS011;44851;45.648;9.004;2023-05-10T04:33:34;6.93;;;6.20;;
59062;SDS011;44851;45.648;9.004;2023-05-10T04:36:00;6.60;;;6.07;;
59062;SDS011;44851;45.648;9.004;2023-05-10T04:38:26;7.33;;;6.53;;
59062;SDS011;44851;45.648;9.004;2023-05-10T04:40:52;6.80;;;6.20;;
59062;SDS011;44851;45.648;9.004;2023-05-10T04:43:17;6.67;;;6.03;;
59062;SDS011;44851;45.648;9.004;2023-05-10T04:45:43;6.47;;;5.87;;
59062;SDS011;44851;45.648;9.004;2023-05-10T04:48:08;6.90;;;6.30;;
59062;SDS011;44851;45.648;9.004;2023-05-10T04:50:34;7.00;;;5.97;;
59062;SDS011;44851;45.648;9.004;2023-05-10T04:52:59;5.77;;;5.27;;
59062;SDS011;44851;45.648;9.004;2023-05-10T04:55:25;7.57;;;6.33;;
59062;SDS011;44851;45.648;9.004;2023-05-10T04:57:51;6.10;;;5.60;;
59062;SDS011;44851;45.648;9.004;2023-05-10T05:00:17;6.90;;;5.50;;
59062;SDS011;44851;45.648;9.004;2023-05-10T05:02:43;6.57;;;5.97;;
59062;SDS011;44851;45.648;9.004;2023-05-10T05:05:12;6.70;;;6.10;;
59062;SDS011;44851;45.648;9.004;2023-05-10T05:07:38;6.50;;;5.90;;
59062;SDS011;44851;45.648;9.004;2023-05-10T05:10:04;7.23;;;6.13;;
59062;SDS011;44851;45.648;9.004;2023-05-10T05:12:33;6.30;;;5.80;;
59062;SDS011;44851;45.648;9.004;2023-05-10T05:14:59;9.17;;;6.23;;
59062;SDS011;44851;45.648;9.004;2023-05-10T05:17:24;6.67;;;5.97;;
59062;SDS011;44851;45.648;9.004;2023-05-10T05:19:50;9.10;;;6.03;;
59062;SDS011;44851;45.648;9.004;2023-05-10T05:22:17;6.00;;;5.40;;
59062;SDS011;44851;45.648;9.004;2023-05-10T05:24:42;6.17;;;5.57;;
59062;SDS011;44851;45.648;9.004;2023-05-10T05:27:07;5.70;;;5.20;;
59062;SDS011;44851;45.648;9.004;2023-05-10T05:29:33;6.13;;;5.53;;
59062;SDS011;44851;45.648;9.004;2023-05-10T05:31:58;5.90;;;5.40;;
59062;SDS011;44851;45.648;9.004;2023-05-10T05:34:24;7.37;;;6.40;;
59062;SDS011;44851;45.648;9.004;2023-05-10T05:36:50;7.50;;;6.43;;
59062;SDS011;44851;45.648;9.004;2023-05-10T05:39:15;6.33;;;5.13;;
59062;SDS011;44851;45.648;9.004;2023-05-10T05:41:41;7.20;;;6.50;;
59062;SDS011;44851;45.648;9.004;2023-05-10T05:44:07;6.17;;;5.57;;
59062;SDS011;44851;45.648;9.004;2023-05-10T05:46:32;6.10;;;5.13;;
59062;SDS011;44851;45.648;9.004;2023-05-10T05:48:58;6.03;;;5.53;;
59062;SDS011;44851;45.648;9.004;2023-05-10T05:51:23;6.20;;;5.60;;
59062;SDS011;44851;45.648;9.004;2023-05-10T05:53:48;5.37;;;4.77;;
59062;SDS011;44851;45.648;9.004;2023-05-10T05:56:14;7.10;;;6.37;;
59062;SDS011;44851;45.648;9.004;2023-05-10T05:58:39;5.87;;;5.37;;
59062;SDS011;44851;45.648;9.004;2023-05-10T06:01:04;7.90;;;7.20;;
59062;SDS011;44851;45.648;9.004;2023-05-10T06:03:30;6.87;;;6.27;;
59062;SDS011;44851;45.648;9.004;2023-05-10T06:05:55;6.50;;;5.90;;
59062;SDS011;44851;45.648;9.004;2023-05-10T06:08:20;10.20;;;6.37;;
59062;SDS011;44851;45.648;9.004;2023-05-10T06:10:46;7.30;;;6.60;;
59062;SDS011;44851;45.648;9.004;2023-05-10T06:13:11;6.80;;;6.20;;
59062;SDS011;44851;45.648;9.004;2023-05-10T06:15:37;7.53;;;6.93;;
59062;SDS011;44851;45.648;9.004;2023-05-10T06:18:02;12.40;;;7.57;;
59062;SDS011;44851;45.648;9.004;2023-05-10T06:20:28;7.50;;;6.77;;
59062;SDS011;44851;45.648;9.004;2023-05-10T06:22:53;7.17;;;6.47;;
59062;SDS011;44851;45.648;9.004;2023-05-10T06:25:19;7.07;;;6.47;;
59062;SDS011;44851;45.648;9.004;2023-05-10T06:27:44;6.90;;;6.27;;
59062;SDS011;44851;45.648;9.004;2023-05-10T06:30:10;7.60;;;6.80;;
59062;SDS011;44851;45.648;9.004;2023-05-10T06:32:36;7.17;;;6.50;;
59062;SDS011;44851;45.648;9.004;2023-05-10T06:35:01;8.50;;;7.20;;
59062;SDS011;44851;45.648;9.004;2023-05-10T06:37:27;7.80;;;7.00;;
59062;SDS011;44851;45.648;9.004;2023-05-10T06:39:52;7.57;;;6.87;;
59062;SDS011;44851;45.648;9.004;2023-05-10T06:42:17;7.23;;;6.53;;
59062;SDS011;44851;45.648;9.004;2023-05-10T06:44:43;7.50;;;6.80;;
59062;SDS011;44851;45.648;9.004;2023-05-10T06:47:08;7.00;;;6.30;;
59062;SDS011;44851;45.648;9.004;2023-05-10T06:49:34;7.17;;;5.93;;
59062;SDS011;44851;45.648;9.004;2023-05-10T06:51:59;6.93;;;6.23;;
59062;SDS011;44851;45.648;9.004;2023-05-10T06:54:25;7.43;;;6.73;;
59062;SDS011;44851;45.648;9.004;2023-05-10T06:56:50;7.53;;;6.70;;
59062;SDS011;44851;45.648;9.004;2023-05-10T06:59:15;7.40;;;6.70;;
59062;SDS011;44851;45.648;9.004;2023-05-10T07:01:41;7.73;;;7.03;;
59062;SDS011;44851;45.648;9.004;2023-05-10T07:04:07;7.53;;;6.73;;
59062;SDS011;44851;45.648;9.004;2023-05-10T07:06:33;8.33;;;7.17;;
59062;SDS011;44851;45.648;9.004;2023-05-10T07:08:58;7.63;;;6.93;;
59062;SDS011;44851;45.648;9.004;2023-05-10T07:11:24;6.87;;;5.90;;
59062;SDS011;44851;45.648;9.004;2023-05-10T07:13:51;7.80;;;7.10;;
59062;SDS011;44851;45.648;9.004;2023-05-10T07:16:17;7.57;;;6.87;;
59062;SDS011;44851;45.648;9.004;2023-05-10T07:18:42;7.07;;;6.47;;
59062;SDS011;44851;45.648;9.004;2023-05-10T07:21:07;7.30;;;6.53;;
59062;SDS011;44851;45.648;9.004;2023-05-10T07:23:33;6.77;;;6.20;;
59062;SDS011;44851;45.648;9.004;2023-05-10T07:25:58;7.17;;;6.43;;
59062;SDS011;44851;45.648;9.004;2023-05-10T07:28:24;6.37;;;5.77;;
59062;SDS011;44851;45.648;9.004;2023-05-10T07:30:49;6.63;;;6.03;;
59062;SDS011;44851;45.648;9.004;2023-05-10T07:33:15;6.90;;;6.23;;
59062;SDS011;44851;45.648;9.004;2023-05-10T07:35:41;6.63;;;6.03;;
59062;SDS011;44851;45.648;9.004;2023-05-10T07:38:07;6.70;;;6.10;;
59062;SDS011;44851;45.648;9.004;2023-05-10T07:40:32;7.57;;;6.80;;
59062;SDS011;44851;45.648;9.004;2023-05-10T07:42:57;6.73;;;6.13;;
59062;SDS011;44851;45.648;9.004;2023-05-10T07:45:23;6.70;;;6.10;;
59062;SDS011;44851;45.648;9.004;2023-05-10T07:47:49;7.10;;;6.47;;
59062;SDS011;44851;45.648;9.004;2023-05-10T07:50:15;6.83;;;6.23;;
59062;SDS011;44851;45.648;9.004;2023-05-10T07:52:40;7.53;;;6.83;;
59062;SDS011;44851;45.648;9.004;2023-05-10T07:55:06;8.47;;;7.27;;
59062;SDS011;44851;45.648;9.004;2023-05-10T07:57:35;7.60;;;6.37;;
59062;SDS011;44851;45.648;9.004;2023-05-10T08:00:01;7.40;;;6.60;;
59062;SDS011;44851;45.648;9.004;2023-05-10T08:02:27;7.33;;;6.73;;
59062;SDS011;44851;45.648;9.004;2023-05-10T08:04:52;8.13;;;6.60;;
59062;SDS011;44851;45.648;9.004;2023-05-10T08:07:17;6.53;;;5.77;;
59062;SDS011;44851;45.648;9.004;2023-05-10T08:09:43;6.77;;;6.20;;
59062;SDS011;44851;45.648;9.004;2023-05-10T08:12:08;6.90;;;5.97;;
59062;SDS011;44851;45.648;9.004;2023-05-10T08:14:34;6.87;;;6.30;;
59062;SDS011;44851;45.648;9.004;2023-05-10T08:17:01;7.70;;;6.17;;
59062;SDS011;44851;45.648;9.004;2023-05-10T08:19:27;6.97;;;6.27;;
59062;SDS011;44851;45.648;9.004;2023-05-10T08:21:52;7.23;;;6.23;;
59062;SDS011;44851;45.648;9.004;2023-05-10T08:24:18;7.30;;;6.60;;
59062;SDS011;44851;45.648;9.004;2023-05-10T08:26:44;6.80;;;6.20;;
59062;SDS011;44851;45.648;9.004;2023-05-10T08:29:09;7.10;;;6.50;;
59062;SDS011;44851;45.648;9.004;2023-05-10T08:31:34;7.43;;;6.80;;
59062;SDS011;44851;45.648;9.004;2023-05-10T08:34:00;8.40;;;7.70;;
59062;SDS011;44851;45.648;9.004;2023-05-10T08:36:25;8.40;;;7.70;;
59062;SDS011;44851;45.648;9.004;2023-05-10T08:38:51;8.40;;;7.60;;
59062;SDS011;44851;45.648;9.004;2023-05-10T08:41:18;7.33;;;6.63;;
59062;SDS011;44851;45.648;9.004;2023-05-10T08:43:46;8.50;;;7.70;;
59062;SDS011;44851;45.648;9.004;2023-05-10T08:46:13;8.50;;;7.80;;
59062;SDS011;44851;45.648;9.004;2023-05-10T08:48:43;8.33;;;7.70;;
59062;SDS011;44851;45.648;9.004;2023-05-10T08:51:09;8.53;;;7.80;;
59062;SDS011;44851;45.648;9.004;2023-05-10T08:53:39;8.67;;;7.90;;
59062;SDS011;44851;45.648;9.004;2023-05-10T08:56:04;8.83;;;8.00;;
59062;SDS011;44851;45.648;9.004;2023-05-10T08:58:30;8.17;;;7.47;;
59062;SDS011;44851;45.648;9.004;2023-05-10T09:00:56;9.30;;;8.50;;
59062;SDS011;44851;45.648;9.004;2023-05-10T09:03:22;9.17;;;8.27;;
59062;SDS011;44851;45.648;9.004;2023-05-10T09:05:48;9.50;;;8.60;;
59062;SDS011;44851;45.648;9.004;2023-05-10T09:08:14;9.00;;;8.20;;
59062;SDS011;44851;45.648;9.004;2023-05-10T09:10:41;9.17;;;8.37;;
59062;SDS011;44851;45.648;9.004;2023-05-10T09:13:09;8.70;;;7.90;;
59062;SDS011;44851;45.648;9.004;2023-05-10T09:15:36;8.87;;;8.07;;
59062;SDS011;44851;45.648;9.004;2023-05-10T09:18:01;9.70;;;8.90;;
59062;SDS011;44851;45.648;9.004;2023-05-10T09:20:27;9.50;;;8.60;;
59062;SDS011;44851;45.648;9.004;2023-05-10T09:22:53;9.40;;;8.50;;
59062;SDS011;44851;45.648;9.004;2023-05-10T09:25:18;9.20;;;8.40;;
59062;SDS011;44851;45.648;9.004;2023-05-10T09:27:45;8.67;;;7.90;;
59062;SDS011;44851;45.648;9.004;2023-05-10T09:30:15;8.60;;;7.80;;
59062;SDS011;44851;45.648;9.004;2023-05-10T09:32:43;8.50;;;7.50;;
59062;SDS011;44851;45.648;9.004;2023-05-10T09:35:10;9.00;;;8.20;;
59062;SDS011;44851;45.648;9.004;2023-05-10T09:37:40;8.43;;;7.73;;
59062;SDS011;44851;45.648;9.004;2023-05-10T09:40:07;9.27;;;8.47;;
59062;SDS011;44851;45.648;9.004;2023-05-10T09:42:35;8.40;;;7.70;;
59062;SDS011;44851;45.648;9.004;2023-05-10T09:45:02;8.47;;;7.77;;
59062;SDS011;44851;45.648;9.004;2023-05-10T09:47:32;8.40;;;7.70;;
59062;SDS011;44851;45.648;9.004;2023-05-10T09:49:59;8.33;;;7.53;;
59062;SDS011;44851;45.648;9.004;2023-05-10T09:52:30;8.60;;;7.73;;
59062;SDS011;44851;45.648;9.004;2023-05-10T09:54:56;9.50;;;8.70;;
59062;SDS011;44851;45.648;9.004;2023-05-10T09:57:22;10.10;;;9.20;;
59062;SDS011;44851;45.648;9.004;2023-05-10T09:59:48;9.77;;;8.93;;
59062;SDS011;44851;45.648;9.004;2023-05-10T10:02:15;10.00;;;9.00;;
59062;SDS011;44851;45.648;9.004;2023-05-10T10:04:41;9.23;;;8.40;;
59062;SDS011;44851;45.648;9.004;2023-05-10T10:07:07;8.50;;;7.80;;
59062;SDS011;44851;45.648;9.004;2023-05-10T10:09:33;8.57;;;7.87;;
59062;SDS011;44851;45.648;9.004;2023-05-10T10:12:00;9.17;;;8.37;;
59062;SDS011;44851;45.648;9.004;2023-05-10T10:14:27;9.23;;;8.53;;
59062;SDS011;44851;45.648;9.004;2023-05-10T10:16:54;10.43;;;9.53;;
59062;SDS011;44851;45.648;9.004;2023-05-10T10:19:19;10.40;;;9.60;;
59062;SDS011;44851;45.648;9.004;2023-05-10T10:21:45;10.90;;;10.00;;
59062;SDS011;44851;45.648;9.004;2023-05-10T10:24:11;12.50;;;11.40;;
59062;SDS011;44851;45.648;9.004;2023-05-10T10:26:37;11.77;;;10.83;;
59062;SDS011;44851;45.648;9.004;2023-05-10T10:34:43;9.70;;;8.90;;
59062;SDS011;44851;45.648;9.004;2023-05-10T10:37:09;10.23;;;9.33;;
59062;SDS011;44851;45.648;9.004;2023-05-10T10:39:34;9.77;;;8.97;;
59062;SDS011;44851;45.648;9.004;2023-05-10T10:42:01;8.57;;;7.87;;
59062;SDS011;44851;45.648;9.004;2023-05-10T10:50:08;10.27;;;9.37;;
59062;SDS011;44851;45.648;9.004;2023-05-10T10:52:37;10.93;;;10.03;;
59062;SDS011;44851;45.648;9.004;2023-05-10T11:02:49;10.20;;;9.40;;
59062;SDS011;44851;45.648;9.004;2023-05-10T11:05:24;9.90;;;9.00;;
59062;SDS011;44851;45.648;9.004;2023-05-10T11:08:06;10.53;;;9.47;;
59062;SDS011;44851;45.648;9.004;2023-05-10T11:10:36;10.70;;;9.70;;
59062;SDS011;44851;45.648;9.004;2023-05-10T11:13:02;9.63;;;8.80;;
59062;SDS011;44851;45.648;9.004;2023-05-10T11:15:30;10.37;;;9.37;;
59062;SDS011;44851;45.648;9.004;2023-05-10T11:18:18;9.63;;;8.73;;
59062;SDS011;44851;45.648;9.004;2023-05-10T11:20:49;8.37;;;7.73;;
59062;SDS011;44851;45.648;9.004;2023-05-10T11:23:16;8.70;;;8.00;;
59062;SDS011;44851;45.648;9.004;2023-05-10T11:25:43;9.20;;;8.40;;
59062;SDS011;44851;45.648;9.004;2023-05-10T11:28:09;9.03;;;8.23;;
59062;SDS011;44851;45.648;9.004;2023-05-10T11:30:36;9.67;;;8.87;;
59062;SDS011;44851;45.648;9.004;2023-05-10T11:33:02;9.13;;;8.33;;
59062;SDS011;44851;45.648;9.004;2023-05-10T11:35:28;9.93;;;8.97;;
59062;SDS011;44851;45.648;9.004;2023-05-10T11:37:53;9.57;;;8.67;;
59062;SDS011;44851;45.648;9.004;2023-05-10T11:40:20;9.60;;;8.67;;
59062;SDS011;44851;45.648;9.004;2023-05-10T11:42:48;9.27;;;8.53;;
59062;SDS011;44851;45.648;9.004;2023-05-10T11:45:14;9.37;;;8.47;;
59062;SDS011;44851;45.648;9.004;2023-05-10T11:47:39;9.10;;;8.40;;
59062;SDS011;44851;45.648;9.004;2023-05-10T11:50:07;9.20;;;8.40;;
59062;SDS011;44851;45.648;9.004;2023-05-10T11:52:36;9.63;;;8.83;;
59062;SDS011;44851;45.648;9.004;2023-05-10T11:55:04;9.27;;;8.47;;
59062;SDS011;44851;45.648;9.004;2023-05-10T11:57:30;9.77;;;8.90;;
59062;SDS011;44851;45.648;9.004;2023-05-10T11:59:56;9.30;;;8.60;;
59062;SDS011;44851;45.648;9.004;2023-05-10T12:02:22;9.33;;;8.40;;
59062;SDS011;44851;45.648;9.004;2023-05-10T12:04:48;9.10;;;8.33;;
59062;SDS011;44851;45.648;9.004;2023-05-10T12:07:14;10.50;;;9.60;;
59062;SDS011;44851;45.648;9.004;2023-05-10T12:09:43;10.23;;;9.40;;
59062;SDS011;44851;45.648;9.004;2023-05-10T12:12:09;11.47;;;10.43;;
59062;SDS011;44851;45.648;9.004;2023-05-10T12:14:35;11.50;;;10.40;;
59062;SDS011;44851;45.648;9.004;2023-05-10T12:17:01;10.70;;;9.80;;
59062;SDS011;44851;45.648;9.004;2023-05-10T12:19:27;10.27;;;9.37;;
59062;SDS011;44851;45.648;9.004;2023-05-10T12:21:52;14.10;;;12.60;;
59062;SDS011;44851;45.648;9.004;2023-05-10T12:24:17;15.57;;;14.03;;
59062;SDS011;44851;45.648;9.004;2023-05-10T12:26:45;20.07;;;15.70;;
59062;SDS011;44851;45.648;9.004;2023-05-10T12:29:17;30.37;;;20.40;;
59062;SDS011;44851;45.648;9.004;2023-05-10T12:31:53;35.13;;;23.03;;
59062;SDS011;44851;45.648;9.004;2023-05-10T12:34:30;31.07;;;21.13;;
59062;SDS011;44851;45.648;9.004;2023-05-10T12:36:57;33.23;;;21.73;;
59062;SDS011;44851;45.648;9.004;2023-05-10T12:39:23;20.43;;;15.37;;
59062;SDS011;44851;45.648;9.004;2023-05-10T12:41:50;21.43;;;17.37;;
59062;SDS011;44851;45.648;9.004;2023-05-10T12:44:15;17.10;;;15.30;;
59062;SDS011;44851;45.648;9.004;2023-05-10T12:46:42;21.53;;;17.90;;
59062;SDS011;44851;45.648;9.004;2023-05-10T12:49:07;21.10;;;16.67;;
59062;SDS011;44851;45.648;9.004;2023-05-10T12:51:32;19.13;;;16.80;;
59062;SDS011;44851;45.648;9.004;2023-05-10T12:53:58;17.07;;;14.17;;
59062;SDS011;44851;45.648;9.004;2023-05-10T12:56:23;15.37;;;12.60;;
59062;SDS011;44851;45.648;9.004;2023-05-10T12:58:49;14.03;;;12.70;;
59062;SDS011;44851;45.648;9.004;2023-05-10T13:01:14;13.23;;;12.03;;
59062;SDS011;44851;45.648;9.004;2023-05-10T13:03:39;14.37;;;13.00;;
59062;SDS011;44851;45.648;9.004;2023-05-10T13:06:05;15.03;;;13.63;;
59062;SDS011;44851;45.648;9.004;2023-05-10T13:08:31;14.67;;;13.33;;
59062;SDS011;44851;45.648;9.004;2023-05-10T13:10:58;12.83;;;11.67;;
59062;SDS011;44851;45.648;9.004;2023-05-10T13:13:25;12.57;;;11.27;;
59062;SDS011;44851;45.648;9.004;2023-05-10T13:15:51;13.53;;;12.03;;
59062;SDS011;44851;45.648;9.004;2023-05-10T13:18:16;12.37;;;11.27;;
59062;SDS011;44851;45.648;9.004;2023-05-10T13:20:42;12.10;;;10.80;;
59062;SDS011;44851;45.648;9.004;2023-05-10T13:23:09;11.93;;;10.73;;
59062;SDS011;44851;45.648;9.004;2023-05-10T13:25:34;12.03;;;10.93;;
59062;SDS011;44851;45.648;9.004;2023-05-10T13:28:00;10.63;;;9.73;;
59062;SDS011;44851;45.648;9.004;2023-05-10T13:30:26;11.17;;;10.27;;
59062;SDS011;44851;45.648;9.004;2023-05-10T13:32:51;10.50;;;9.60;;
59062;SDS011;44851;45.648;9.004;2023-05-10T13:35:17;11.17;;;10.03;;
59062;SDS011;44851;45.648;9.004;2023-05-10T13:37:42;10.73;;;9.73;;
59062;SDS011;44851;45.648;9.004;2023-05-10T13:40:07;10.37;;;9.53;;
59062;SDS011;44851;45.648;9.004;2023-05-10T13:42:33;11.47;;;10.47;;
59062;SDS011;44851;45.648;9.004;2023-05-10T13:44:59;11.57;;;10.57;;
59062;SDS011;44851;45.648;9.004;2023-05-10T13:47:26;11.90;;;10.80;;
59062;SDS011;44851;45.648;9.004;2023-05-10T13:49:51;12.00;;;10.90;;
59062;SDS011;44851;45.648;9.004;2023-05-10T13:52:16;12.80;;;11.60;;
59062;SDS011;44851;45.648;9.004;2023-05-10T13:54:42;13.10;;;11.90;;
59062;SDS011;44851;45.648;9.004;2023-05-10T13:57:07;13.37;;;12.17;;
59062;SDS011;44851;45.648;9.004;2023-05-10T13:59:33;12.83;;;11.70;;
59062;SDS011;44851;45.648;9.004;2023-05-10T14:01:58;13.60;;;12.47;;
59062;SDS011;44851;45.648;9.004;2023-05-10T14:04:24;12.93;;;11.80;;
59062;SDS011;44851;45.648;9.004;2023-05-10T14:06:49;14.90;;;13.50;;
59062;SDS011;44851;45.648;9.004;2023-05-10T14:09:15;13.23;;;12.03;;
59062;SDS011;44851;45.648;9.004;2023-05-10T14:11:41;11.80;;;10.80;;
59062;SDS011;44851;45.648;9.004;2023-05-10T14:14:08;12.73;;;11.63;;
59062;SDS011;44851;45.648;9.004;2023-05-10T14:16:34;13.33;;;12.23;;
59062;SDS011;44851;45.648;9.004;2023-05-10T14:18:59;11.13;;;10.07;;
59062;SDS011;44851;45.648;9.004;2023-05-10T14:21:25;11.80;;;10.80;;
59062;SDS011;44851;45.648;9.004;2023-05-10T14:23:50;11.20;;;10.20;;
59062;SDS011;44851;45.648;9.004;2023-05-10T14:26:16;11.00;;;10.00;;
59062;SDS011;44851;45.648;9.004;2023-05-10T14:28:41;10.73;;;9.83;;
59062;SDS011;44851;45.648;9.004;2023-05-10T14:31:07;11.57;;;10.50;;
59062;SDS011;44851;45.648;9.004;2023-05-10T14:33:32;11.00;;;10.07;;
59062;SDS011;44851;45.648;9.004;2023-05-10T14:35:57;11.50;;;10.50;;
59062;SDS011;44851;45.648;9.004;2023-05-10T14:38:23;11.37;;;10.37;;
59062;SDS011;44851;45.648;9.004;2023-05-10T14:40:48;11.63;;;10.73;;
59062;SDS011;44851;45.648;9.004;2023-05-10T14:43:14;11.00;;;10.10;;
59062;SDS011;44851;45.648;9.004;2023-05-10T14:45:39;11.27;;;10.37;;
59062;SDS011;44851;45.648;9.004;2023-05-10T14:48:05;11.17;;;10.27;;
59062;SDS011;44851;45.648;9.004;2023-05-10T14:50:30;10.10;;;9.30;;
59062;SDS011;44851;45.648;9.004;2023-05-10T14:52:56;11.87;;;10.87;;
59062;SDS011;44851;45.648;9.004;2023-05-10T14:55:23;11.93;;;10.83;;
59062;SDS011;44851;45.648;9.004;2023-05-10T14:57:48;11.23;;;10.23;;
59062;SDS011;44851;45.648;9.004;2023-05-10T15:00:15;10.33;;;9.50;;
59062;SDS011;44851;45.648;9.004;2023-05-10T15:02:41;12.03;;;11.03;;
59062;SDS011;44851;45.648;9.004;2023-05-10T15:05:06;11.20;;;10.20;;
59062;SDS011;44851;45.648;9.004;2023-05-10T15:07:32;10.93;;;10.03;;
59062;SDS011;44851;45.648;9.004;2023-05-10T15:09:57;10.63;;;9.83;;
59062;SDS011;44851;45.648;9.004;2023-05-10T15:12:23;10.60;;;9.70;;